createdAt,value
2022-12-18T12:35:06.132Z,-1.00
2022-12-18T12:38:15.941Z,-1.00
2022-12-18T12:41:06.601Z,-1.00
2022-12-18T12:43:50.437Z,-1.00
2022-12-18T12:46:20.563Z,-1.10
2022-12-18T12:48:55.726Z,-1.00
2022-12-18T12:51:29.781Z,-0.90
2022-12-18T12:54:00.434Z,-0.90
2022-12-18T12:56:45.071Z,-0.90
2022-12-18T12:59:49.317Z,-1.00
2022-12-18T13:02:31.027Z,-1.00
2022-12-18T13:05:17.826Z,-1.00
2022-12-18T13:08:04.583Z,-1.00
2022-12-18T13:10:42.783Z,-1.00
2022-12-18T13:13:13.528Z,-1.00
2022-12-18T13:16:05.449Z,-1.10
2022-12-18T13:18:34.330Z,-1.10
2022-12-18T13:21:03.328Z,-1.00
2022-12-18T13:23:34.378Z,-1.00
2022-12-18T13:26:28.909Z,-1.00
2022-12-18T13:28:58.562Z,-1.00
2022-12-18T13:31:41.158Z,-1.00
2022-12-18T13:34:28.318Z,-1.00
2022-12-18T13:37:18.866Z,-0.90
2022-12-18T13:39:46.446Z,-0.90
2022-12-18T13:42:34.498Z,-0.90
2022-12-18T13:45:02.049Z,-1.00
2022-12-18T13:47:36.152Z,-1.00
2022-12-18T13:50:28.609Z,-0.90
2022-12-18T13:52:59.554Z,-1.00
2022-12-18T13:55:26.803Z,-0.90
2022-12-18T13:58:05.972Z,-0.90
2022-12-18T14:00:33.121Z,-0.90
2022-12-18T14:03:01.227Z,-1.00
2022-12-18T14:05:36.603Z,-1.00
2022-12-18T14:08:15.395Z,-1.00
2022-12-18T14:10:48.997Z,-1.00
2022-12-18T14:13:29.273Z,-1.00
2022-12-18T14:15:59.275Z,-1.00
2022-12-18T14:18:46.536Z,-1.00
2022-12-18T14:21:33.060Z,-1.00
2022-12-18T14:24:22.611Z,-0.90
2022-12-18T14:26:52.123Z,-0.90
2022-12-18T14:29:31.064Z,-0.90
2022-12-18T14:32:19.379Z,-0.90
2022-12-18T14:34:52.756Z,-0.90
2022-12-18T14:37:25.223Z,-0.90
2022-12-18T14:40:10.464Z,-1.00
2022-12-18T14:42:38.934Z,-1.00
2022-12-18T14:45:42.113Z,-1.00
2022-12-18T14:48:23.498Z,-0.90
2022-12-18T14:51:04.735Z,-0.90
2022-12-18T14:53:54.084Z,-0.90
2022-12-18T14:56:24.822Z,-0.90
2022-12-18T14:58:58.156Z,-1.00
2022-12-18T15:01:33.428Z,-1.00
2022-12-18T15:04:02.835Z,-1.00
2022-12-18T15:06:37.387Z,-1.00
2022-12-18T15:09:25.707Z,-1.00
2022-12-18T15:11:59.614Z,-1.00
2022-12-18T15:14:50.745Z,-1.10
2022-12-18T15:17:24.568Z,-1.10
2022-12-18T15:20:01.788Z,-1.10
2022-12-18T15:22:36.888Z,-1.10
2022-12-18T15:25:33.120Z,-1.10
2022-12-18T15:28:00.373Z,-1.10
2022-12-18T15:30:32.435Z,-1.10
2022-12-18T15:33:25.991Z,-1.10
2022-12-18T15:36:10.383Z,-1.00
2022-12-18T15:38:37.716Z,-1.00
2022-12-18T15:41:13.837Z,-1.00
2022-12-18T15:43:42.061Z,-1.00
2022-12-18T15:46:16.205Z,-1.10
2022-12-18T15:49:01.199Z,-1.10
2022-12-18T15:51:36.910Z,-1.00
2022-12-18T15:54:11.097Z,-1.00
2022-12-18T15:56:56.828Z,-1.00
2022-12-18T15:59:24.316Z,-1.00
2022-12-18T16:01:56.564Z,-1.00
2022-12-18T16:04:24.627Z,-1.00
2022-12-18T16:09:40.011Z,-1.00
2022-12-18T16:12:16.419Z,-1.00
2022-12-18T16:14:44.017Z,-1.00
2022-12-18T16:17:13.353Z,-1.00
2022-12-18T16:19:40.703Z,-1.00
2022-12-18T16:22:27.674Z,-1.00
2022-12-18T16:24:56.706Z,-0.90
2022-12-18T16:27:25.774Z,-0.90
2022-12-18T16:29:53.115Z,-0.90
2022-12-18T16:32:22.527Z,-0.90
2022-12-18T16:34:50.654Z,-0.90
2022-12-18T16:37:17.905Z,-0.80
2022-12-18T16:39:45.511Z,-0.80
2022-12-18T16:42:17.908Z,-0.80
2022-12-18T16:44:46.488Z,-0.80
2022-12-18T16:47:15.189Z,-0.80
2022-12-18T16:49:45.237Z,-0.80
2022-12-18T16:52:14.211Z,-0.70
2022-12-18T16:54:44.565Z,-0.70
2022-12-18T16:57:17.667Z,-0.70
2022-12-18T16:59:48.781Z,-0.70
2022-12-18T17:02:27.534Z,-0.70
2022-12-18T17:05:00.806Z,-0.70
2022-12-18T17:07:36.836Z,-0.70
2022-12-18T17:10:05.136Z,-0.70
2022-12-18T17:12:34.403Z,-0.60
2022-12-18T17:15:01.569Z,-0.60
2022-12-18T17:17:28.796Z,-0.60
2022-12-18T17:19:56.225Z,-0.60
2022-12-18T17:22:23.548Z,-0.60
2022-12-18T17:24:50.784Z,-0.60
2022-12-18T17:27:17.884Z,-0.70
2022-12-18T17:29:48.289Z,-0.70
2022-12-18T17:32:16.932Z,-0.70
2022-12-18T17:34:44.142Z,-0.70
2022-12-18T17:37:11.344Z,-0.70
2022-12-18T17:39:38.598Z,-0.70
2022-12-18T17:42:05.851Z,-0.80
2022-12-18T17:44:40.026Z,-0.80
2022-12-18T17:47:07.244Z,-0.80
2022-12-18T17:49:34.757Z,-0.80
2022-12-18T17:52:01.824Z,-0.80
2022-12-18T17:54:28.857Z,-0.80
2022-12-18T17:56:57.008Z,-0.90
2022-12-18T17:59:25.355Z,-0.80
2022-12-18T18:01:52.578Z,-0.80
2022-12-18T18:04:19.850Z,-0.80
2022-12-18T18:06:46.991Z,-0.80
2022-12-18T18:09:16.886Z,-0.80
2022-12-18T18:12:04.179Z,-0.80
2022-12-18T18:14:31.817Z,-0.90
2022-12-18T18:17:04.085Z,-0.90
2022-12-18T18:19:33.594Z,-0.90
2022-12-18T18:22:02.188Z,-0.80
2022-12-18T18:24:30.666Z,-0.80
2022-12-18T18:27:13.596Z,-0.90
2022-12-18T18:30:02.354Z,-0.90
2022-12-18T18:32:42.345Z,-0.80
2022-12-18T18:35:37.479Z,-0.80
2022-12-18T18:38:10.795Z,-0.80
2022-12-18T18:40:40.430Z,-0.80
2022-12-18T18:43:15.205Z,-0.80
2022-12-18T18:45:51.855Z,-0.80
2022-12-18T18:48:28.500Z,-0.70
2022-12-18T18:51:21.090Z,-0.70
2022-12-18T18:54:01.958Z,-0.70
2022-12-18T18:56:56.164Z,-0.70
2022-12-18T18:59:31.573Z,-0.70
2022-12-18T19:02:04.441Z,-0.70
2022-12-18T19:04:47.077Z,-0.60
2022-12-18T19:07:34.083Z,-0.60
2022-12-18T19:10:08.686Z,-0.60
2022-12-18T19:12:57.387Z,-0.50
2022-12-18T19:15:33.113Z,-0.50
2022-12-18T19:18:05.394Z,-0.50
2022-12-18T19:20:43.152Z,-0.40
2022-12-18T19:23:14.723Z,-0.40
2022-12-18T19:26:10.118Z,-0.30
2022-12-18T19:28:49.768Z,-0.40
2022-12-18T19:31:27.175Z,-0.30
2022-12-18T19:34:15.833Z,-0.30
2022-12-18T19:36:49.666Z,-0.30
2022-12-18T19:39:32.154Z,-0.30
2022-12-18T19:42:01.855Z,-0.20
2022-12-18T19:44:34.102Z,-0.20
2022-12-18T19:47:05.172Z,-0.20
2022-12-18T19:49:38.876Z,-0.10
2022-12-18T19:52:16.209Z,-0.10
2022-12-18T19:54:48.072Z,0.00
2022-12-18T19:57:34.615Z,0.00
2022-12-18T20:00:18.797Z,-0.10
2022-12-18T20:02:50.614Z,-0.10
2022-12-18T20:05:24.287Z,-0.10
2022-12-18T20:07:56.879Z,0.00
2022-12-18T20:10:36.390Z,0.00
2022-12-18T20:13:08.986Z,0.00
2022-12-18T20:15:48.463Z,-0.10
2022-12-18T20:18:15.711Z,-0.10
2022-12-18T20:20:57.714Z,0.00
2022-12-18T20:23:33.886Z,0.00
2022-12-18T20:26:12.410Z,0.10
2022-12-18T20:28:49.167Z,0.10
2022-12-18T20:31:21.605Z,0.10
2022-12-18T20:34:06.272Z,0.10
2022-12-18T20:36:57.767Z,0.10
2022-12-18T20:39:41.514Z,0.10
2022-12-18T20:42:19.228Z,0.10
2022-12-18T20:44:54.446Z,0.10
2022-12-18T20:47:31.392Z,0.10
2022-12-18T20:50:04.305Z,0.10
2022-12-18T20:52:34.412Z,0.20
2022-12-18T20:55:16.227Z,0.20
2022-12-18T20:57:50.874Z,0.20
2022-12-18T21:00:19.454Z,0.20
2022-12-18T21:03:07.749Z,0.20
2022-12-18T21:05:43.913Z,0.20
2022-12-18T21:08:22.245Z,0.30
2022-12-18T21:10:55.828Z,0.30
2022-12-18T21:16:30.487Z,0.30
2022-12-18T21:19:07.209Z,0.30
2022-12-18T21:21:40.473Z,0.30
2022-12-18T21:24:23.356Z,0.40
2022-12-18T21:27:01.642Z,0.40
2022-12-18T21:29:35.598Z,0.40
2022-12-18T21:32:57.297Z,0.40
2022-12-18T21:36:25.066Z,0.50
2022-12-18T21:39:22.510Z,0.50
2022-12-18T21:46:35.634Z,0.50
2022-12-18T21:49:32.886Z,0.50
2022-12-18T21:52:36.688Z,0.60
2022-12-18T21:55:09.889Z,0.60
2022-12-18T21:58:20.992Z,0.60
2022-12-18T22:00:49.190Z,0.60
2022-12-18T22:03:51.202Z,0.70
2022-12-18T22:07:12.078Z,0.70
2022-12-18T22:10:00.261Z,0.80
2022-12-18T22:12:48.946Z,0.70
2022-12-18T22:16:14.557Z,0.80
2022-12-18T22:18:49.456Z,0.80
2022-12-18T22:21:35.972Z,0.90
2022-12-18T22:24:41.346Z,0.90
2022-12-18T22:27:25.677Z,0.90
2022-12-18T22:30:54.093Z,1.00
2022-12-18T22:33:39.381Z,1.00
2022-12-18T22:36:45.606Z,1.00
2022-12-18T22:42:59.899Z,1.10
2022-12-18T22:46:02.991Z,1.20
2022-12-18T22:48:42.930Z,1.20
2022-12-18T22:51:52.977Z,1.30
2022-12-18T22:55:14.606Z,1.30
2022-12-18T22:58:11.244Z,1.40
2022-12-18T23:01:18.768Z,1.50
2022-12-18T23:04:44.237Z,1.50
2022-12-18T23:07:39.616Z,1.50
2022-12-18T23:10:46.256Z,1.60
2022-12-18T23:13:17.695Z,1.70
2022-12-18T23:16:24.674Z,1.70
2022-12-18T23:19:08.654Z,1.70
2022-12-18T23:22:01.595Z,1.80
2022-12-18T23:24:42.656Z,1.90
2022-12-18T23:27:27.736Z,1.90
2022-12-18T23:30:10.705Z,2.00
2022-12-18T23:33:00.025Z,2.00
2022-12-18T23:38:47.170Z,2.10
2022-12-18T23:41:39.298Z,2.10
2022-12-18T23:44:18.019Z,2.10
2022-12-18T23:47:01.043Z,2.20
2022-12-18T23:49:58.041Z,2.20
2022-12-18T23:52:39.869Z,2.20
2022-12-18T23:56:22.818Z,2.20
2022-12-18T23:58:36.161Z,2.20
